createdAt,value
2022-12-16T00:02:33.521Z,83.66
2022-12-16T00:05:42.674Z,83.26
2022-12-16T00:08:47.195Z,83.68
2022-12-16T00:11:50.062Z,83.24
2022-12-16T00:14:55.080Z,83.33
2022-12-16T00:17:57.757Z,83.45
2022-12-16T00:21:00.699Z,83.49
2022-12-16T00:24:03.448Z,83.65
2022-12-16T00:27:06.112Z,83.60
2022-12-16T00:30:11.496Z,83.72
2022-12-16T00:33:14.164Z,83.57
2022-12-16T00:36:16.886Z,83.70
2022-12-16T00:39:19.615Z,83.60
2022-12-16T00:42:22.290Z,83.48
2022-12-16T00:45:26.348Z,83.63
2022-12-16T00:48:29.132Z,83.46
2022-12-16T00:51:31.799Z,83.66
2022-12-16T00:54:34.509Z,83.40
2022-12-16T00:57:37.186Z,83.45
2022-12-16T01:00:41.571Z,83.43
2022-12-16T01:03:44.720Z,83.35
2022-12-16T01:06:48.023Z,83.26
2022-12-16T01:09:50.696Z,83.49
2022-12-16T01:12:54.875Z,83.47
2022-12-16T01:16:02.473Z,83.51
2022-12-16T01:19:05.932Z,83.19
2022-12-16T01:22:09.139Z,83.28
2022-12-16T01:25:14.108Z,83.12
2022-12-16T01:28:16.785Z,82.98
2022-12-16T01:31:22.099Z,83.12
2022-12-16T01:34:25.105Z,82.90
2022-12-16T01:37:27.809Z,82.95
2022-12-16T01:40:30.949Z,82.90
2022-12-16T01:43:36.138Z,82.63
2022-12-16T01:46:40.994Z,82.87
2022-12-16T01:49:48.861Z,82.67
2022-12-16T01:52:57.344Z,82.53
2022-12-16T01:56:01.954Z,82.64
2022-12-16T01:59:04.993Z,82.49
2022-12-16T02:02:10.307Z,82.52
2022-12-16T02:05:21.480Z,82.59
2022-12-16T02:08:24.252Z,82.33
2022-12-16T02:11:42.863Z,81.90
2022-12-16T02:15:00.414Z,82.04
2022-12-16T02:18:14.322Z,81.96
2022-12-16T02:21:31.811Z,81.70
2022-12-16T02:25:03.957Z,81.99
2022-12-16T02:28:12.673Z,81.92
2022-12-16T02:31:26.939Z,81.78
2022-12-16T02:34:38.161Z,81.57
2022-12-16T02:37:49.138Z,81.82
2022-12-16T02:40:57.493Z,81.99
2022-12-16T02:44:05.420Z,81.65
2022-12-16T02:47:09.621Z,81.76
2022-12-16T02:50:19.718Z,81.60
2022-12-16T02:53:22.809Z,81.49
2022-12-16T02:56:48.573Z,81.50
2022-12-16T02:59:58.051Z,81.12
2022-12-16T03:03:07.573Z,81.19
2022-12-16T03:06:14.096Z,80.61
2022-12-16T03:09:21.994Z,80.69
2022-12-16T03:12:25.784Z,80.66
2022-12-16T03:15:33.714Z,80.60
2022-12-16T03:18:42.144Z,80.23
2022-12-16T03:21:50.351Z,80.46
2022-12-16T03:24:53.553Z,80.50
2022-12-16T03:28:01.933Z,80.25
2022-12-16T03:31:15.352Z,80.53
2022-12-16T03:34:28.594Z,80.20
2022-12-16T03:37:37.530Z,80.55
2022-12-16T03:40:44.121Z,80.46
2022-12-16T03:43:48.428Z,80.85
2022-12-16T03:46:51.449Z,80.62
2022-12-16T03:49:55.648Z,80.59
2022-12-16T03:52:58.984Z,80.94
2022-12-16T03:56:02.129Z,80.80
2022-12-16T03:59:04.910Z,81.06
2022-12-16T04:02:07.692Z,80.85
2022-12-16T04:05:12.510Z,81.00
2022-12-16T04:08:15.381Z,80.86
2022-12-16T04:11:35.539Z,80.98
2022-12-16T04:14:55.811Z,81.18
2022-12-16T04:18:16.108Z,81.01
2022-12-16T04:21:37.538Z,81.11
2022-12-16T04:24:40.347Z,81.11
2022-12-16T04:27:46.827Z,81.27
2022-12-16T04:30:49.580Z,81.17
2022-12-16T04:34:09.759Z,81.16
2022-12-16T04:37:31.157Z,81.28
2022-12-16T04:40:51.341Z,81.26
2022-12-16T04:44:11.594Z,81.23
2022-12-16T04:47:31.938Z,81.25
2022-12-16T04:50:52.119Z,81.32
2022-12-16T04:54:13.708Z,81.49
2022-12-16T04:57:33.811Z,81.43
2022-12-16T05:00:53.980Z,81.34
2022-12-16T05:04:15.856Z,81.46
2022-12-16T05:07:38.537Z,81.50
2022-12-16T05:11:05.773Z,81.54
2022-12-16T05:14:26.160Z,81.34
2022-12-16T05:17:46.315Z,81.33
2022-12-16T05:21:06.573Z,81.60
2022-12-16T05:24:27.158Z,81.33
2022-12-16T05:27:49.739Z,81.44
2022-12-16T05:31:10.505Z,81.55
2022-12-16T05:34:31.384Z,81.73
2022-12-16T05:37:52.437Z,81.56
2022-12-16T05:41:12.487Z,81.50
2022-12-16T05:44:33.944Z,81.65
2022-12-16T05:47:54.120Z,81.73
2022-12-16T05:51:14.484Z,81.64
2022-12-16T05:54:39.958Z,82.00
2022-12-16T05:58:00.372Z,81.89
2022-12-16T06:01:22.824Z,82.00
2022-12-16T06:04:42.923Z,82.23
2022-12-16T06:08:09.574Z,82.21
2022-12-16T06:11:29.565Z,82.24
2022-12-16T06:14:49.792Z,82.14
2022-12-16T06:18:11.195Z,82.28
2022-12-16T06:21:31.525Z,82.27
2022-12-16T06:24:51.817Z,82.36
2022-12-16T06:28:12.484Z,82.43
2022-12-16T06:31:32.636Z,82.41
2022-12-16T06:34:54.015Z,82.29
2022-12-16T06:38:14.215Z,82.15
2022-12-16T06:41:34.304Z,82.37
2022-12-16T06:44:54.527Z,82.34
2022-12-16T06:48:14.592Z,82.34
2022-12-16T06:51:36.001Z,82.38
2022-12-16T06:55:04.517Z,82.51
2022-12-16T06:58:24.917Z,82.53
2022-12-16T07:01:45.150Z,82.38
2022-12-16T07:05:06.552Z,82.34
2022-12-16T07:08:34.253Z,82.51
2022-12-16T07:11:56.702Z,82.29
2022-12-16T07:15:27.400Z,82.20
2022-12-16T07:18:48.782Z,82.28
2022-12-16T07:22:09.440Z,81.95
2022-12-16T07:25:33.480Z,82.29
2022-12-16T07:28:53.835Z,82.28
2022-12-16T07:32:14.162Z,82.22
2022-12-16T07:35:37.652Z,82.17
2022-12-16T07:39:06.217Z,82.16
2022-12-16T07:42:30.641Z,82.13
2022-12-16T07:45:50.919Z,82.06
2022-12-16T07:49:11.183Z,82.18
2022-12-16T07:52:33.790Z,82.05
2022-12-16T07:56:00.036Z,81.90
2022-12-16T07:59:28.962Z,82.00
2022-12-16T08:02:52.744Z,81.55
2022-12-16T08:06:13.049Z,81.83
2022-12-16T08:09:36.410Z,81.76
2022-12-16T08:12:57.204Z,81.47
2022-12-16T08:16:19.176Z,81.58
2022-12-16T08:19:39.422Z,81.33
2022-12-16T08:23:00.083Z,81.32
2022-12-16T08:26:20.815Z,81.27
2022-12-16T08:29:45.140Z,81.04
2022-12-16T08:33:16.587Z,81.05
2022-12-16T08:36:39.404Z,80.85
2022-12-16T08:40:26.153Z,80.71
2022-12-16T08:43:39.977Z,80.95
2022-12-16T08:47:00.153Z,81.12
2022-12-16T08:50:24.377Z,80.96
2022-12-16T08:53:44.538Z,80.39
2022-12-16T08:57:04.790Z,80.65
2022-12-16T09:00:26.536Z,80.35
2022-12-16T09:03:46.828Z,80.72
2022-12-16T09:07:09.648Z,80.86
2022-12-16T09:10:32.271Z,80.86
2022-12-16T09:14:05.648Z,81.12
2022-12-16T09:17:29.441Z,80.97
2022-12-16T09:21:16.602Z,80.81
2022-12-16T09:24:38.107Z,80.63
2022-12-16T09:28:06.723Z,80.86
2022-12-16T09:31:26.928Z,80.62
2022-12-16T09:34:47.207Z,80.62
2022-12-16T09:38:08.032Z,80.46
2022-12-16T09:41:46.201Z,80.39
2022-12-16T09:45:22.995Z,80.52
2022-12-16T09:48:52.412Z,79.96
2022-12-16T09:52:18.635Z,79.96
2022-12-16T09:55:44.184Z,79.93
2022-12-16T09:59:11.135Z,80.22
2022-12-16T10:02:34.161Z,80.06
2022-12-16T10:06:06.655Z,80.18
2022-12-16T10:09:35.053Z,79.79
2022-12-16T10:13:05.808Z,80.09
2022-12-16T10:16:33.774Z,80.10
2022-12-16T10:20:10.154Z,80.07
2022-12-16T10:23:38.963Z,79.86
2022-12-16T10:27:10.841Z,79.53
2022-12-16T10:30:33.553Z,79.29
2022-12-16T10:34:04.197Z,79.29
2022-12-16T10:37:24.391Z,79.19
2022-12-16T10:40:54.753Z,79.16
2022-12-16T10:44:19.775Z,78.81
2022-12-16T10:47:45.436Z,79.12
2022-12-16T10:51:06.853Z,78.99
2022-12-16T10:54:44.108Z,78.76
2022-12-16T10:58:18.021Z,78.64
2022-12-16T11:01:50.911Z,78.51
2022-12-16T11:05:11.385Z,78.25
2022-12-16T11:08:46.011Z,78.20
2022-12-16T11:12:06.252Z,77.97
2022-12-16T11:15:42.503Z,77.54
2022-12-16T11:19:15.161Z,77.34
2022-12-16T11:22:42.670Z,77.37
2022-12-16T11:26:04.106Z,76.97
2022-12-16T11:29:36.382Z,77.06
2022-12-16T11:32:59.883Z,76.91
2022-12-16T11:36:28.739Z,76.45
2022-12-16T11:39:50.879Z,76.75
2022-12-16T11:43:17.232Z,76.58
2022-12-16T11:46:43.847Z,76.91
2022-12-16T11:50:04.223Z,76.93
2022-12-16T11:53:44.517Z,77.16
2022-12-16T11:57:05.474Z,77.11
2022-12-16T12:00:33.780Z,77.34
2022-12-16T12:04:07.574Z,77.31
2022-12-16T12:07:45.762Z,77.05
2022-12-16T12:11:36.296Z,77.19
2022-12-16T12:15:05.593Z,76.95
2022-12-16T12:18:38.196Z,77.07
2022-12-16T12:22:08.780Z,76.70
2022-12-16T12:25:39.145Z,76.88
2022-12-16T12:29:06.585Z,77.23
2022-12-16T12:32:43.907Z,76.90
2022-12-16T12:36:16.658Z,77.11
2022-12-16T12:39:44.433Z,77.03
2022-12-16T12:43:08.566Z,77.18
2022-12-16T12:46:37.505Z,77.37
2022-12-16T12:50:02.441Z,77.43
2022-12-16T12:53:33.561Z,77.55
2022-12-16T12:57:07.664Z,77.75
2022-12-16T13:00:35.351Z,77.36
2022-12-16T13:04:16.381Z,76.98
2022-12-16T13:07:37.335Z,76.49
2022-12-16T13:10:58.933Z,76.33
2022-12-16T13:14:19.824Z,76.17
2022-12-16T13:17:41.747Z,76.48
2022-12-16T13:21:08.595Z,75.89
2022-12-16T13:24:43.697Z,76.34
2022-12-16T13:28:11.562Z,75.93
2022-12-16T13:31:32.725Z,75.94
2022-12-16T13:34:52.981Z,76.03
2022-12-16T13:38:15.816Z,75.86
2022-12-16T13:42:23.086Z,76.03
2022-12-16T13:46:02.942Z,76.12
2022-12-16T13:50:04.027Z,76.07
2022-12-16T13:53:34.771Z,76.13
2022-12-16T13:57:07.879Z,75.45
2022-12-16T14:00:36.961Z,75.62
2022-12-16T14:04:05.915Z,75.79
2022-12-16T14:07:29.159Z,75.76
2022-12-16T14:10:51.877Z,75.81
2022-12-16T14:14:19.848Z,75.66
2022-12-16T14:17:47.308Z,75.88
2022-12-16T14:21:14.628Z,75.77
2022-12-16T14:24:42.857Z,76.02
2022-12-16T14:28:03.127Z,75.93
2022-12-16T14:31:37.588Z,75.99
2022-12-16T14:35:02.363Z,76.05
2022-12-16T14:38:43.533Z,76.11
2022-12-16T14:42:14.269Z,76.29
2022-12-16T14:45:46.877Z,76.33
2022-12-16T14:49:10.139Z,76.43
2022-12-16T14:52:38.774Z,76.49
2022-12-16T14:56:00.186Z,76.23
2022-12-16T14:59:43.164Z,76.46
2022-12-16T15:03:12.320Z,76.19
2022-12-16T15:06:42.599Z,76.61
2022-12-16T15:10:09.054Z,76.41
2022-12-16T15:13:36.210Z,76.47
2022-12-16T15:16:57.326Z,76.73
2022-12-16T15:20:36.988Z,76.79
2022-12-16T15:24:04.133Z,76.61
2022-12-16T15:27:45.402Z,76.84
2022-12-16T15:31:13.186Z,77.17
2022-12-16T15:38:52.896Z,76.97
2022-12-16T15:42:13.964Z,77.00
2022-12-16T15:45:36.771Z,77.12
2022-12-16T15:49:02.504Z,77.23
2022-12-16T15:52:47.305Z,77.19
2022-12-16T15:56:15.434Z,77.32
2022-12-16T15:59:43.946Z,77.24
2022-12-16T16:03:07.035Z,77.49
2022-12-16T16:06:46.105Z,77.38
2022-12-16T16:10:06.483Z,77.37
2022-12-16T16:13:27.279Z,77.55
2022-12-16T16:16:48.744Z,77.73
2022-12-16T16:20:09.015Z,77.82
2022-12-16T16:23:41.303Z,77.94
2022-12-16T16:27:07.629Z,78.22
2022-12-16T16:30:29.241Z,77.79
2022-12-16T16:33:49.920Z,77.87
2022-12-16T16:37:14.634Z,78.13
2022-12-16T16:40:42.292Z,78.38
2022-12-16T16:44:09.043Z,78.52
2022-12-16T16:47:34.854Z,78.66
2022-12-16T16:51:04.799Z,78.66
2022-12-16T16:54:24.914Z,78.88
2022-12-16T16:57:53.632Z,78.99
2022-12-16T17:01:14.037Z,79.12
2022-12-16T17:04:34.451Z,79.66
2022-12-16T17:08:09.628Z,79.48
2022-12-16T17:11:36.513Z,79.76
2022-12-16T17:14:58.197Z,79.62
2022-12-16T17:18:18.251Z,79.78
2022-12-16T17:21:38.451Z,80.06
2022-12-16T17:24:58.607Z,79.89
2022-12-16T17:28:15.353Z,80.07
2022-12-16T17:31:36.847Z,80.33
2022-12-16T17:34:57.105Z,80.50
2022-12-16T17:38:21.078Z,80.58
2022-12-16T17:41:47.037Z,80.55
2022-12-16T17:45:07.423Z,80.90
2022-12-16T17:48:31.953Z,81.18
2022-12-16T17:51:55.158Z,81.22
2022-12-16T17:55:15.870Z,81.50
2022-12-16T17:58:35.952Z,81.45
2022-12-16T18:01:57.049Z,81.86
2022-12-16T18:05:18.813Z,82.04
2022-12-16T18:08:38.941Z,82.26
2022-12-16T18:12:07.524Z,82.26
2022-12-16T18:15:29.019Z,82.57
2022-12-16T18:18:49.255Z,82.87
2022-12-16T18:22:10.634Z,82.68
2022-12-16T18:25:30.848Z,82.91
2022-12-16T18:28:50.945Z,82.98
2022-12-16T18:32:11.177Z,82.98
2022-12-16T18:35:32.009Z,82.87
2022-12-16T18:38:56.801Z,82.99
2022-12-16T18:42:17.048Z,82.96
2022-12-16T18:45:40.284Z,83.08
2022-12-16T18:49:04.710Z,83.22
2022-12-16T18:52:24.852Z,83.20
2022-12-16T18:55:50.350Z,83.22
2022-12-16T18:59:15.143Z,83.46
2022-12-16T19:02:35.708Z,83.60
2022-12-16T19:05:56.061Z,83.63
2022-12-16T19:09:16.167Z,83.71
2022-12-16T19:12:37.631Z,83.55
2022-12-16T19:15:54.498Z,83.68
2022-12-16T19:19:23.014Z,83.65
2022-12-16T19:22:43.145Z,84.02
2022-12-16T19:26:14.919Z,83.77
2022-12-16T19:29:36.693Z,84.11
2022-12-16T19:32:59.895Z,84.01
2022-12-16T19:36:20.004Z,84.22
2022-12-16T19:39:40.168Z,84.47
2022-12-16T19:43:00.825Z,84.26
2022-12-16T19:46:33.040Z,84.14
2022-12-16T19:49:59.897Z,84.19
2022-12-16T19:53:26.161Z,84.10
2022-12-16T19:56:46.541Z,84.56
2022-12-16T20:00:10.043Z,84.65
2022-12-16T20:03:35.341Z,84.71
2022-12-16T20:06:56.847Z,84.79
2022-12-16T20:10:17.012Z,84.54
2022-12-16T20:13:37.207Z,84.53
2022-12-16T20:17:00.332Z,84.52
2022-12-16T20:20:22.709Z,84.77
2022-12-16T20:23:42.977Z,84.62
2022-12-16T20:27:03.248Z,84.80
2022-12-16T20:30:38.964Z,84.81
2022-12-16T20:37:43.784Z,85.15
2022-12-16T20:41:13.953Z,85.29
2022-12-16T20:44:39.883Z,85.25
2022-12-16T20:48:11.744Z,85.39
2022-12-16T20:51:37.951Z,85.34
2022-12-16T20:54:59.350Z,85.37
2022-12-16T20:58:19.779Z,85.06
2022-12-16T21:01:47.919Z,85.22
2022-12-16T21:05:16.264Z,85.15
2022-12-16T21:08:37.054Z,85.18
2022-12-16T21:11:59.046Z,85.08
2022-12-16T21:15:22.114Z,84.67
2022-12-16T21:18:42.683Z,84.63
2022-12-16T21:22:06.408Z,84.44
2022-12-16T21:25:29.129Z,84.43
2022-12-16T21:28:56.853Z,84.43
2022-12-16T21:32:18.295Z,84.28
2022-12-16T21:35:38.859Z,84.23
2022-12-16T21:39:01.085Z,84.40
2022-12-16T21:42:24.441Z,84.32
2022-12-16T21:45:45.930Z,84.38
2022-12-16T21:49:06.091Z,84.27
2022-12-16T21:52:22.742Z,84.36
2022-12-16T21:55:42.993Z,84.14
2022-12-16T21:59:03.127Z,84.08
2022-12-16T22:02:30.084Z,84.22
2022-12-16T22:05:46.783Z,84.20
2022-12-16T22:09:07.102Z,84.34
2022-12-16T22:12:31.106Z,83.86
2022-12-16T22:15:51.741Z,83.55
2022-12-16T22:19:14.093Z,83.28
2022-12-16T22:22:42.588Z,82.27
2022-12-16T22:26:04.106Z,81.89
2022-12-16T22:29:33.451Z,82.15
2022-12-16T22:32:53.234Z,81.90
2022-12-16T22:36:33.269Z,82.23
2022-12-16T22:39:56.235Z,82.55
2022-12-16T22:43:25.018Z,82.63
2022-12-16T22:46:45.251Z,82.51
2022-12-16T22:50:08.361Z,82.65
2022-12-16T22:53:33.244Z,82.56
2022-12-16T22:56:56.622Z,82.96
2022-12-16T23:00:17.011Z,82.96
2022-12-16T23:03:40.454Z,82.61
2022-12-16T23:07:00.826Z,82.54
2022-12-16T23:10:23.191Z,82.54
2022-12-16T23:13:59.146Z,82.50
2022-12-16T23:17:20.274Z,82.27
2022-12-16T23:20:40.766Z,81.96
2022-12-16T23:24:06.279Z,81.77
2022-12-16T23:27:27.719Z,81.52
2022-12-16T23:30:51.062Z,81.38
2022-12-16T23:34:19.241Z,81.06
2022-12-16T23:37:39.598Z,81.01
2022-12-16T23:41:00.047Z,80.35
2022-12-16T23:44:31.146Z,79.83
2022-12-16T23:48:02.003Z,80.04
2022-12-16T23:51:22.400Z,80.29
2022-12-16T23:54:47.812Z,80.31
2022-12-16T23:58:16.366Z,80.34
